createdAt,value
2023-01-17T17:02:01.512Z,145.25
2023-01-17T17:03:33.917Z,152.75
2023-01-17T17:05:07.749Z,145.00
2023-01-17T17:06:39.905Z,142.75
2023-01-17T17:08:11.819Z,144.00
2023-01-17T17:09:43.858Z,136.00
2023-01-17T17:11:20.579Z,132.75
2023-01-17T17:12:52.570Z,154.50
2023-01-17T17:14:24.684Z,137.00
2023-01-17T17:15:56.641Z,145.50
2023-01-17T17:17:29.430Z,126.50
2023-01-17T17:19:04.304Z,120.50
2023-01-17T17:20:36.329Z,117.50
2023-01-17T17:22:08.519Z,110.00
2023-01-17T17:23:40.402Z,103.20
2023-01-17T17:25:12.720Z,107.80
2023-01-17T17:26:44.617Z,101.60
2023-01-17T17:28:17.070Z,89.50
2023-01-17T17:29:49.269Z,91.75
2023-01-17T17:31:21.275Z,93.60
2023-01-17T17:32:53.156Z,109.20
2023-01-17T17:34:27.814Z,101.60
2023-01-17T17:36:10.377Z,105.80
2023-01-17T17:37:42.591Z,114.00
2023-01-17T17:39:17.713Z,123.00
2023-01-17T17:40:49.678Z,126.25
2023-01-17T17:42:21.509Z,121.50
2023-01-17T17:43:54.067Z,122.75
2023-01-17T17:45:26.078Z,125.75
2023-01-17T17:46:57.992Z,130.50
2023-01-17T17:48:29.848Z,132.25
2023-01-17T17:50:01.829Z,138.50
2023-01-17T17:51:35.648Z,147.75
2023-01-17T17:53:08.786Z,151.75
2023-01-17T17:54:40.911Z,157.50
2023-01-17T17:56:13.147Z,167.50
2023-01-17T17:57:45.915Z,162.00
2023-01-17T17:59:19.604Z,159.25
2023-01-17T18:00:51.437Z,162.50
2023-01-17T18:02:23.450Z,171.00
2023-01-17T18:03:57.280Z,185.50
2023-01-17T18:05:30.165Z,189.00
2023-01-17T18:07:02.340Z,176.00
2023-01-17T18:08:35.100Z,204.00
2023-01-17T18:10:07.793Z,200.33
2023-01-17T18:11:41.017Z,198.67
2023-01-17T18:13:12.874Z,215.67
2023-01-17T18:14:44.780Z,208.67
2023-01-17T18:16:27.467Z,218.67
2023-01-17T18:17:59.520Z,212.33
2023-01-17T18:19:31.594Z,210.00
2023-01-17T18:21:13.834Z,215.33
2023-01-17T18:22:45.842Z,206.67
2023-01-17T18:24:19.424Z,211.67
2023-01-17T18:25:51.251Z,220.00
2023-01-17T18:27:23.167Z,212.67
2023-01-17T18:28:55.787Z,233.67
2023-01-17T18:30:27.990Z,221.67
2023-01-17T18:31:59.962Z,212.00
2023-01-17T18:33:31.976Z,220.00
2023-01-17T18:35:04.165Z,203.33
2023-01-17T18:36:36.488Z,210.00
2023-01-17T18:38:08.451Z,211.33
2023-01-17T18:39:40.402Z,204.67
2023-01-17T18:41:14.282Z,201.33
2023-01-17T18:42:48.678Z,191.67
2023-01-17T18:44:22.229Z,196.00
2023-01-17T18:45:54.455Z,198.00
2023-01-17T18:47:26.311Z,205.33
2023-01-17T18:48:58.405Z,152.25
2023-01-17T18:50:30.287Z,182.00
2023-01-17T18:52:02.430Z,181.00
2023-01-17T18:53:35.097Z,181.75
2023-01-17T18:55:07.314Z,190.00
2023-01-17T18:56:39.267Z,181.75
2023-01-17T18:58:11.184Z,170.50
2023-01-17T18:59:44.468Z,167.25
2023-01-17T19:01:17.596Z,160.00
2023-01-17T19:02:49.593Z,167.25
2023-01-17T19:04:21.724Z,162.00
2023-01-17T19:05:53.588Z,159.75
2023-01-17T19:07:29.257Z,154.25
2023-01-17T19:09:01.273Z,160.00
2023-01-17T19:10:33.606Z,151.25
2023-01-17T19:12:05.663Z,198.00
2023-01-17T19:13:38.336Z,238.25
2023-01-17T19:15:10.451Z,315.50
2023-01-17T19:16:42.618Z,250.00
2023-01-17T19:18:14.535Z,233.00
2023-01-17T19:19:46.729Z,206.00
2023-01-17T19:21:20.403Z,193.00
2023-01-17T19:22:52.861Z,196.00
2023-01-17T19:24:24.782Z,186.00
2023-01-17T19:25:56.726Z,198.33
2023-01-17T19:27:28.618Z,189.75
2023-01-17T19:29:00.586Z,192.33
2023-01-17T19:30:34.539Z,191.67
2023-01-17T19:32:07.509Z,185.75
2023-01-17T19:33:40.150Z,181.00
2023-01-17T19:35:14.014Z,177.00
2023-01-17T19:36:45.987Z,184.67
2023-01-17T19:38:17.900Z,183.25
2023-01-17T19:39:49.822Z,180.00
2023-01-17T19:41:26.773Z,173.00
2023-01-17T19:42:59.363Z,187.00
2023-01-17T19:44:31.927Z,182.25
2023-01-17T19:46:03.959Z,174.00
2023-01-17T19:47:36.546Z,178.00
2023-01-17T19:49:08.739Z,178.75
2023-01-17T19:50:40.643Z,166.25
2023-01-17T19:52:13.207Z,164.00
2023-01-17T19:53:45.121Z,162.00
2023-01-17T19:55:17.899Z,155.00
2023-01-17T19:56:49.742Z,146.75
2023-01-17T19:58:21.602Z,151.75
2023-01-17T19:59:54.168Z,157.75
2023-01-17T20:01:28.830Z,145.50
2023-01-17T20:03:00.777Z,142.75
2023-01-17T20:04:32.727Z,131.25
2023-01-17T20:06:08.229Z,131.25
2023-01-17T20:07:40.213Z,125.75
2023-01-17T20:09:12.174Z,129.50
2023-01-17T20:10:44.045Z,114.25
2023-01-17T20:12:16.477Z,125.50
2023-01-17T20:13:49.208Z,129.00
2023-01-17T20:15:23.090Z,132.50
2023-01-17T20:16:55.348Z,128.25
2023-01-17T20:18:27.353Z,135.00
2023-01-17T20:19:59.225Z,128.00
2023-01-17T20:21:31.255Z,139.50
2023-01-17T20:23:05.736Z,132.50
2023-01-17T20:24:37.642Z,141.50
2023-01-17T20:26:13.499Z,186.25
2023-01-17T20:27:45.894Z,162.50
2023-01-17T20:29:18.128Z,158.75
2023-01-17T20:30:49.901Z,155.50
2023-01-17T20:32:21.890Z,160.75
2023-01-17T20:33:54.719Z,154.00
2023-01-17T20:35:28.826Z,151.25
2023-01-17T20:37:00.687Z,142.75
2023-01-17T20:38:45.080Z,150.50
2023-01-17T20:40:17.678Z,154.50
2023-01-17T20:41:51.570Z,160.50
2023-01-17T20:43:23.477Z,155.25
2023-01-17T20:44:55.280Z,156.75
2023-01-17T20:46:29.053Z,153.50
2023-01-17T20:48:01.091Z,162.25
2023-01-17T20:49:33.036Z,152.75
2023-01-17T20:51:10.755Z,151.25
2023-01-17T20:52:42.601Z,147.00
2023-01-17T20:54:18.077Z,163.00
2023-01-17T20:55:56.378Z,158.00
2023-01-17T20:57:28.361Z,161.75
2023-01-17T20:59:12.522Z,150.25
2023-01-17T21:00:44.521Z,152.00
2023-01-17T21:02:16.557Z,152.25
2023-01-17T21:03:51.229Z,140.50
2023-01-17T21:05:23.086Z,138.75
2023-01-17T21:06:55.424Z,132.00
2023-01-17T21:08:28.544Z,136.75
2023-01-17T21:10:00.456Z,135.50
2023-01-17T21:11:34.137Z,132.25
2023-01-17T21:13:05.985Z,148.75
2023-01-17T21:14:38.704Z,139.00
2023-01-17T21:16:14.488Z,119.25
2023-01-17T21:17:46.350Z,130.75
2023-01-17T21:19:18.321Z,142.00
2023-01-17T21:20:50.237Z,138.25
2023-01-17T21:22:22.229Z,153.75
2023-01-17T21:23:55.336Z,141.25
2023-01-17T21:25:27.186Z,139.25
2023-01-17T21:26:59.125Z,150.75
2023-01-17T21:28:32.955Z,143.50
2023-01-17T21:30:05.255Z,139.25
2023-01-17T21:31:39.746Z,145.25
2023-01-17T21:33:13.187Z,142.25
2023-01-17T21:34:45.105Z,149.25
2023-01-17T21:36:17.675Z,137.50
2023-01-17T21:37:49.888Z,129.00
2023-01-17T21:39:21.765Z,142.00
2023-01-17T21:40:53.661Z,135.25
2023-01-17T21:42:25.510Z,140.25
2023-01-17T21:43:59.125Z,130.00
2023-01-17T21:45:32.211Z,134.25
2023-01-17T21:47:04.155Z,139.75
2023-01-17T21:48:35.968Z,150.50
2023-01-17T21:50:09.506Z,165.75
2023-01-17T21:51:54.349Z,137.25
2023-01-17T21:53:27.893Z,138.00
2023-01-17T21:55:18.455Z,132.25
2023-01-17T21:57:09.244Z,130.75
2023-01-17T21:58:44.295Z,129.50
2023-01-17T22:00:16.693Z,135.00
2023-01-17T22:01:48.690Z,133.75
2023-01-17T22:03:20.621Z,130.25
2023-01-17T22:04:54.640Z,138.25
2023-01-17T22:06:29.191Z,140.00
2023-01-17T22:08:14.454Z,136.00
2023-01-17T22:09:46.367Z,140.50
2023-01-17T22:11:20.003Z,152.75
2023-01-17T22:12:52.398Z,146.75
2023-01-17T22:14:24.307Z,132.75
2023-01-17T22:16:00.190Z,140.50
2023-01-17T22:17:32.141Z,136.75
2023-01-17T22:19:04.858Z,130.75
2023-01-17T22:20:41.461Z,121.50
2023-01-17T22:22:13.438Z,122.00
2023-01-17T22:23:58.707Z,132.75
2023-01-17T22:25:30.935Z,128.00
2023-01-17T22:27:02.948Z,132.00
2023-01-17T22:28:34.878Z,121.75
2023-01-17T22:30:13.000Z,128.00
2023-01-17T22:31:45.596Z,113.50
2023-01-17T22:33:17.584Z,129.25
2023-01-17T22:34:49.404Z,111.75
2023-01-17T22:36:21.430Z,127.00
2023-01-17T22:37:54.151Z,119.50
2023-01-17T22:39:26.051Z,100.20
2023-01-17T22:41:25.445Z,116.20
2023-01-17T22:42:57.664Z,109.75
2023-01-17T22:44:29.819Z,110.00
2023-01-17T22:46:01.650Z,102.60
2023-01-17T22:47:34.428Z,102.80
2023-01-17T22:49:08.554Z,101.40
2023-01-17T22:50:40.457Z,87.75
2023-01-17T22:52:12.284Z,101.00
2023-01-17T22:53:48.538Z,100.20
2023-01-17T22:55:21.727Z,83.25
2023-01-17T22:56:54.279Z,94.75
2023-01-17T22:58:28.745Z,84.25
2023-01-17T23:00:00.707Z,91.50
2023-01-17T23:01:32.942Z,86.50
2023-01-17T23:03:06.431Z,86.25
2023-01-17T23:04:38.464Z,91.25
2023-01-17T23:06:14.900Z,82.00
2023-01-17T23:07:49.749Z,83.00
2023-01-17T23:09:21.753Z,79.00
2023-01-17T23:11:12.208Z,70.75
2023-01-17T23:12:44.081Z,67.00
2023-01-17T23:14:16.823Z,66.67
2023-01-17T23:16:07.163Z,72.25
2023-01-17T23:17:57.428Z,61.50
2023-01-17T23:19:32.316Z,66.00
2023-01-17T23:21:04.258Z,62.00
2023-01-17T23:22:36.230Z,70.00
2023-01-17T23:24:08.143Z,64.75
2023-01-17T23:25:40.160Z,65.00
2023-01-17T23:27:34.027Z,61.00
2023-01-17T23:29:05.965Z,62.00
2023-01-17T23:30:39.540Z,58.50
2023-01-17T23:32:11.436Z,58.75
2023-01-17T23:33:43.273Z,48.75
